sensor_id;sensor_type;location;lat;lon;timestamp;temperature;humidity
49238;DHT22;35069;47.906;1.892;2022-10-01T06:00:50;14.60;99.90
49238;DHT22;35069;47.906;1.892;2022-10-01T06:03:16;14.60;99.90
49238;DHT22;35069;47.906;1.892;2022-10-01T06:05:43;14.70;99.90
49238;DHT22;35069;47.906;1.892;2022-10-01T06:08:09;14.70;99.90
49238;DHT22;35069;47.906;1.892;2022-10-01T06:10:35;14.70;99.90
49238;DHT22;35069;47.906;1.892;2022-10-01T06:13:02;14.70;99.90
49238;DHT22;35069;47.906;1.892;2022-10-01T06:15:32;14.70;99.90
49238;DHT22;35069;47.906;1.892;2022-10-01T06:18:05;14.80;99.90
49238;DHT22;35069;47.906;1.892;2022-10-01T06:20:31;14.80;99.90
49238;DHT22;35069;47.906;1.892;2022-10-01T06:22:57;14.80;99.90
49238;DHT22;35069;47.906;1.892;2022-10-01T06:25:24;14.80;99.90
49238;DHT22;35069;47.906;1.892;2022-10-01T06:27:51;14.80;99.90
49238;DHT22;35069;47.906;1.892;2022-10-01T06:30:20;14.80;99.90
49238;DHT22;35069;47.906;1.892;2022-10-01T06:32:45;14.80;99.90
49238;DHT22;35069;47.906;1.892;2022-10-01T06:35:11;14.90;99.90
49238;DHT22;35069;47.906;1.892;2022-10-01T06:37:37;14.90;99.90
49238;DHT22;35069;47.906;1.892;2022-10-01T06:40:04;14.90;99.90
49238;DHT22;35069;47.906;1.892;2022-10-01T06:42:30;14.90;99.90
49238;DHT22;35069;47.906;1.892;2022-10-01T06:44:56;15.00;99.90
49238;DHT22;35069;47.906;1.892;2022-10-01T06:47:21;15.00;99.90
49238;DHT22;35069;47.906;1.892;2022-10-01T06:49:47;15.00;99.90
49238;DHT22;35069;47.906;1.892;2022-10-01T06:52:12;15.00;99.90
49238;DHT22;35069;47.906;1.892;2022-10-01T06:54:57;15.00;99.90
49238;DHT22;35069;47.906;1.892;2022-10-01T06:57:24;15.10;99.90
49238;DHT22;35069;47.906;1.892;2022-10-01T06:59:50;15.10;99.90
49238;DHT22;35069;47.906;1.892;2022-10-01T07:02:22;15.10;99.90
49238;DHT22;35069;47.906;1.892;2022-10-01T07:04:55;15.10;99.90
49238;DHT22;35069;47.906;1.892;2022-10-01T07:07:31;15.10;99.90
49238;DHT22;35069;47.906;1.892;2022-10-01T07:09:57;15.20;99.90
49238;DHT22;35069;47.906;1.892;2022-10-01T07:12:24;15.20;99.90
49238;DHT22;35069;47.906;1.892;2022-10-01T07:14:49;15.20;99.90
49238;DHT22;35069;47.906;1.892;2022-10-01T07:17:15;15.20;99.90
49238;DHT22;35069;47.906;1.892;2022-10-01T07:19:41;15.20;99.90
49238;DHT22;35069;47.906;1.892;2022-10-01T07:22:07;15.30;99.90
49238;DHT22;35069;47.906;1.892;2022-10-01T07:24:33;15.30;99.90
49238;DHT22;35069;47.906;1.892;2022-10-01T07:26:58;15.30;99.90
49238;DHT22;35069;47.906;1.892;2022-10-01T07:29:24;15.30;99.90
49238;DHT22;35069;47.906;1.892;2022-10-01T07:31:50;15.30;99.90
49238;DHT22;35069;47.906;1.892;2022-10-01T07:34:16;15.30;99.90
49238;DHT22;35069;47.906;1.892;2022-10-01T07:36:41;15.40;99.90
49238;DHT22;35069;47.906;1.892;2022-10-01T07:39:10;15.40;99.90
49238;DHT22;35069;47.906;1.892;2022-10-01T07:41:36;15.40;99.90
49238;DHT22;35069;47.906;1.892;2022-10-01T07:44:01;15.40;99.90
49238;DHT22;35069;47.906;1.892;2022-10-01T07:46:28;15.50;99.90
49238;DHT22;35069;47.906;1.892;2022-10-01T07:48:54;15.60;99.90
49238;DHT22;35069;47.906;1.892;2022-10-01T07:51:20;15.60;99.90
49238;DHT22;35069;47.906;1.892;2022-10-01T07:53:45;15.60;99.90
49238;DHT22;35069;47.906;1.892;2022-10-01T07:56:11;15.70;99.90
49238;DHT22;35069;47.906;1.892;2022-10-01T07:58:37;15.70;99.90
49238;DHT22;35069;47.906;1.892;2022-10-01T08:01:05;15.70;99.90
49238;DHT22;35069;47.906;1.892;2022-10-01T08:03:31;15.70;99.90
49238;DHT22;35069;47.906;1.892;2022-10-01T08:05:56;15.70;99.90
49238;DHT22;35069;47.906;1.892;2022-10-01T08:08:22;15.80;99.90
49238;DHT22;35069;47.906;1.892;2022-10-01T08:10:48;15.80;99.90
49238;DHT22;35069;47.906;1.892;2022-10-01T08:13:16;15.90;99.90
49238;DHT22;35069;47.906;1.892;2022-10-01T08:15:43;15.90;99.90
49238;DHT22;35069;47.906;1.892;2022-10-01T08:18:10;16.00;99.90
49238;DHT22;35069;47.906;1.892;2022-10-01T08:20:36;16.10;99.90
49238;DHT22;35069;47.906;1.892;2022-10-01T08:23:06;16.10;99.90
49238;DHT22;35069;47.906;1.892;2022-10-01T08:25:32;16.10;99.90
49238;DHT22;35069;47.906;1.892;2022-10-01T08:27:58;16.20;99.90
49238;DHT22;35069;47.906;1.892;2022-10-01T08:30:27;16.30;99.90
49238;DHT22;35069;47.906;1.892;2022-10-01T08:32:58;16.30;99.90
49238;DHT22;35069;47.906;1.892;2022-10-01T08:35:24;16.40;99.90
49238;DHT22;35069;47.906;1.892;2022-10-01T08:37:50;16.40;99.90
49238;DHT22;35069;47.906;1.892;2022-10-01T08:40:17;16.40;99.90
49238;DHT22;35069;47.906;1.892;2022-10-01T08:42:53;16.40;99.90
49238;DHT22;35069;47.906;1.892;2022-10-01T08:45:31;16.40;99.90
49238;DHT22;35069;47.906;1.892;2022-10-01T08:48:04;16.40;99.90
49238;DHT22;35069;47.906;1.892;2022-10-01T08:50:56;16.40;99.90
49238;DHT22;35069;47.906;1.892;2022-10-01T08:53:33;16.40;99.90
49238;DHT22;35069;47.906;1.892;2022-10-01T08:56:01;16.40;99.90
49238;DHT22;35069;47.906;1.892;2022-10-01T08:58:36;16.40;99.90
49238;DHT22;35069;47.906;1.892;2022-10-01T09:01:05;16.40;99.90
49238;DHT22;35069;47.906;1.892;2022-10-01T09:03:31;16.30;99.90
49238;DHT22;35069;47.906;1.892;2022-10-01T09:06:20;16.40;99.90
49238;DHT22;35069;47.906;1.892;2022-10-01T09:25:22;16.60;99.90
49238;DHT22;35069;47.906;1.892;2022-10-01T09:27:50;16.60;99.90
49238;DHT22;35069;47.906;1.892;2022-10-01T09:30:20;16.60;99.90
49238;DHT22;35069;47.906;1.892;2022-10-01T09:33:03;16.60;99.90
49238;DHT22;35069;47.906;1.892;2022-10-01T09:38:16;16.60;99.90
49238;DHT22;35069;47.906;1.892;2022-10-01T09:40:56;16.60;99.90
49238;DHT22;35069;47.906;1.892;2022-10-01T09:43:29;16.60;99.90
49238;DHT22;35069;47.906;1.892;2022-10-01T09:45:56;16.60;99.90
49238;DHT22;35069;47.906;1.892;2022-10-01T09:48:36;16.60;99.90
49238;DHT22;35069;47.906;1.892;2022-10-01T09:51:13;16.60;99.90
49238;DHT22;35069;47.906;1.892;2022-10-01T09:53:47;16.70;99.90
49238;DHT22;35069;47.906;1.892;2022-10-01T09:56:32;16.70;99.90
49238;DHT22;35069;47.906;1.892;2022-10-01T09:59:02;16.60;99.90
49238;DHT22;35069;47.906;1.892;2022-10-01T10:01:45;16.60;99.90
49238;DHT22;35069;47.906;1.892;2022-10-01T10:04:18;16.60;99.90
49238;DHT22;35069;47.906;1.892;2022-10-01T10:06:45;16.60;99.90
49238;DHT22;35069;47.906;1.892;2022-10-01T10:09:15;16.60;99.90
49238;DHT22;35069;47.906;1.892;2022-10-01T10:11:41;16.70;99.90
49238;DHT22;35069;47.906;1.892;2022-10-01T10:14:21;16.70;99.90
49238;DHT22;35069;47.906;1.892;2022-10-01T10:16:49;16.70;99.90
49238;DHT22;35069;47.906;1.892;2022-10-01T10:19:25;16.80;99.90
49238;DHT22;35069;47.906;1.892;2022-10-01T10:21:56;16.90;99.90
49238;DHT22;35069;47.906;1.892;2022-10-01T10:24:34;16.90;99.90
49238;DHT22;35069;47.906;1.892;2022-10-01T10:27:01;16.90;99.90
49238;DHT22;35069;47.906;1.892;2022-10-01T10:29:30;16.90;99.90
49238;DHT22;35069;47.906;1.892;2022-10-01T10:31:56;16.90;99.90
49238;DHT22;35069;47.906;1.892;2022-10-01T10:36:57;16.90;99.90
49238;DHT22;35069;47.906;1.892;2022-10-01T10:39:28;16.90;99.90
49238;DHT22;35069;47.906;1.892;2022-10-01T10:41:56;17.10;99.90
49238;DHT22;35069;47.906;1.892;2022-10-01T10:44:26;17.20;99.90
49238;DHT22;35069;47.906;1.892;2022-10-01T10:46:59;17.30;99.90
49238;DHT22;35069;47.906;1.892;2022-10-01T10:49:32;17.40;99.90
49238;DHT22;35069;47.906;1.892;2022-10-01T10:52:02;17.70;99.90
49238;DHT22;35069;47.906;1.892;2022-10-01T10:54:47;18.00;99.90
49238;DHT22;35069;47.906;1.892;2022-10-01T10:57:25;18.10;99.90
49238;DHT22;35069;47.906;1.892;2022-10-01T11:00:16;18.20;99.90
49238;DHT22;35069;47.906;1.892;2022-10-01T11:03:15;18.10;99.90
49238;DHT22;35069;47.906;1.892;2022-10-01T11:05:44;17.90;99.90
49238;DHT22;35069;47.906;1.892;2022-10-01T11:08:18;17.70;99.90
49238;DHT22;35069;47.906;1.892;2022-10-01T11:24:40;18.70;99.90
49238;DHT22;35069;47.906;1.892;2022-10-01T11:27:16;19.20;99.90
49238;DHT22;35069;47.906;1.892;2022-10-01T11:32:45;19.40;99.90
49238;DHT22;35069;47.906;1.892;2022-10-01T11:43:58;18.60;99.90
49238;DHT22;35069;47.906;1.892;2022-10-01T11:46:33;18.40;99.90
49238;DHT22;35069;47.906;1.892;2022-10-01T11:51:51;18.30;99.90
49238;DHT22;35069;47.906;1.892;2022-10-01T11:54:22;18.10;99.90
49238;DHT22;35069;47.906;1.892;2022-10-01T11:56:52;18.10;99.90
49238;DHT22;35069;47.906;1.892;2022-10-01T11:59:52;17.90;99.90
49238;DHT22;35069;47.906;1.892;2022-10-01T12:02:33;17.80;99.90
49238;DHT22;35069;47.906;1.892;2022-10-01T12:05:04;17.70;99.90
49238;DHT22;35069;47.906;1.892;2022-10-01T12:07:44;17.70;99.90
49238;DHT22;35069;47.906;1.892;2022-10-01T12:13:24;17.70;99.90
49238;DHT22;35069;47.906;1.892;2022-10-01T12:15:54;17.80;99.90
49238;DHT22;35069;47.906;1.892;2022-10-01T12:18:54;17.90;99.90
49238;DHT22;35069;47.906;1.892;2022-10-01T12:23:59;18.70;99.90
49238;DHT22;35069;47.906;1.892;2022-10-01T12:26:58;18.70;99.90
49238;DHT22;35069;47.906;1.892;2022-10-01T12:34:40;18.70;99.90
49238;DHT22;35069;47.906;1.892;2022-10-01T12:37:15;18.70;99.90
49238;DHT22;35069;47.906;1.892;2022-10-01T12:51:31;18.60;99.90
49238;DHT22;35069;47.906;1.892;2022-10-01T12:57:04;19.10;99.90
49238;DHT22;35069;47.906;1.892;2022-10-01T12:59:43;19.40;99.90
49238;DHT22;35069;47.906;1.892;2022-10-01T13:03:10;19.50;99.90
49238;DHT22;35069;47.906;1.892;2022-10-01T13:11:02;19.80;99.90
49238;DHT22;35069;47.906;1.892;2022-10-01T13:13:32;19.80;99.90
49238;DHT22;35069;47.906;1.892;2022-10-01T13:17:01;19.80;99.90
49238;DHT22;35069;47.906;1.892;2022-10-01T13:24:39;19.70;99.90
49238;DHT22;35069;47.906;1.892;2022-10-01T13:32:34;19.80;99.90
49238;DHT22;35069;47.906;1.892;2022-10-01T13:37:51;19.80;99.90
49238;DHT22;35069;47.906;1.892;2022-10-01T13:42:48;20.10;99.90
49238;DHT22;35069;47.906;1.892;2022-10-01T13:45:39;20.20;99.90
49238;DHT22;35069;47.906;1.892;2022-10-01T13:51:04;20.20;99.90
49238;DHT22;35069;47.906;1.892;2022-10-01T13:56:09;20.00;99.90
49238;DHT22;35069;47.906;1.892;2022-10-01T13:58:45;20.10;99.90
49238;DHT22;35069;47.906;1.892;2022-10-01T14:04:18;20.20;99.90
49238;DHT22;35069;47.906;1.892;2022-10-01T14:06:55;20.30;99.90
49238;DHT22;35069;47.906;1.892;2022-10-01T14:09:34;20.40;99.90
49238;DHT22;35069;47.906;1.892;2022-10-01T14:14:57;20.20;99.90
49238;DHT22;35069;47.906;1.892;2022-10-01T14:17:43;20.00;99.90
49238;DHT22;35069;47.906;1.892;2022-10-01T14:20:21;19.80;99.90
49238;DHT22;35069;47.906;1.892;2022-10-01T14:22:58;19.70;99.90
49238;DHT22;35069;47.906;1.892;2022-10-01T14:25:55;19.60;99.90
49238;DHT22;35069;47.906;1.892;2022-10-01T14:31:21;19.40;99.90
49238;DHT22;35069;47.906;1.892;2022-10-01T14:36:55;19.30;99.90
49238;DHT22;35069;47.906;1.892;2022-10-01T14:39:28;19.30;99.90
49238;DHT22;35069;47.906;1.892;2022-10-01T14:41:55;19.30;99.90
49238;DHT22;35069;47.906;1.892;2022-10-01T14:44:27;19.30;99.90
49238;DHT22;35069;47.906;1.892;2022-10-01T14:46:57;19.20;99.90
49238;DHT22;35069;47.906;1.892;2022-10-01T14:49:30;19.20;99.90
49238;DHT22;35069;47.906;1.892;2022-10-01T14:52:03;19.30;99.90
49238;DHT22;35069;47.906;1.892;2022-10-01T14:54:44;19.30;99.90
49238;DHT22;35069;47.906;1.892;2022-10-01T14:57:17;19.20;99.90
49238;DHT22;35069;47.906;1.892;2022-10-01T14:59:46;19.20;99.90
49238;DHT22;35069;47.906;1.892;2022-10-01T15:02:21;19.20;99.90
49238;DHT22;35069;47.906;1.892;2022-10-01T15:04:49;19.20;99.90
49238;DHT22;35069;47.906;1.892;2022-10-01T15:07:16;19.30;99.90
49238;DHT22;35069;47.906;1.892;2022-10-01T15:09:46;19.20;99.90
49238;DHT22;35069;47.906;1.892;2022-10-01T15:12:14;19.30;99.90
49238;DHT22;35069;47.906;1.892;2022-10-01T15:14:41;19.40;99.90
49238;DHT22;35069;47.906;1.892;2022-10-01T15:17:23;19.40;99.90
49238;DHT22;35069;47.906;1.892;2022-10-01T15:19:51;19.50;99.90
49238;DHT22;35069;47.906;1.892;2022-10-01T15:22:26;19.50;99.90
49238;DHT22;35069;47.906;1.892;2022-10-01T15:24:55;19.40;99.90
49238;DHT22;35069;47.906;1.892;2022-10-01T15:27:22;19.40;99.90
49238;DHT22;35069;47.906;1.892;2022-10-01T15:29:51;19.40;99.90
49238;DHT22;35069;47.906;1.892;2022-10-01T15:32:20;19.30;99.90
49238;DHT22;35069;47.906;1.892;2022-10-01T15:34:50;19.40;99.90
49238;DHT22;35069;47.906;1.892;2022-10-01T15:37:27;19.40;99.90
49238;DHT22;35069;47.906;1.892;2022-10-01T15:39:54;19.40;99.90
49238;DHT22;35069;47.906;1.892;2022-10-01T15:42:24;19.30;99.90
49238;DHT22;35069;47.906;1.892;2022-10-01T15:45:11;19.30;99.90
49238;DHT22;35069;47.906;1.892;2022-10-01T15:50:19;19.40;99.90
49238;DHT22;35069;47.906;1.892;2022-10-01T15:55:17;19.40;99.90
49238;DHT22;35069;47.906;1.892;2022-10-01T15:57:46;19.40;99.90
49238;DHT22;35069;47.906;1.892;2022-10-01T16:00:29;19.30;99.90
49238;DHT22;35069;47.906;1.892;2022-10-01T16:02:57;19.30;99.90
49238;DHT22;35069;47.906;1.892;2022-10-01T16:05:31;19.30;99.90
49238;DHT22;35069;47.906;1.892;2022-10-01T16:08:00;19.30;99.90
49238;DHT22;35069;47.906;1.892;2022-10-01T16:10:36;19.30;99.90
49238;DHT22;35069;47.906;1.892;2022-10-01T16:16:25;19.30;99.90
49238;DHT22;35069;47.906;1.892;2022-10-01T16:21:39;19.30;99.90
49238;DHT22;35069;47.906;1.892;2022-10-01T16:24:24;19.20;99.90
49238;DHT22;35069;47.906;1.892;2022-10-01T16:27:19;19.10;99.90
49238;DHT22;35069;47.906;1.892;2022-10-01T16:32:25;19.00;99.90
49238;DHT22;35069;47.906;1.892;2022-10-01T16:34:51;18.90;99.90
49238;DHT22;35069;47.906;1.892;2022-10-01T16:37:17;18.90;99.90
49238;DHT22;35069;47.906;1.892;2022-10-01T16:39:43;18.80;99.90
49238;DHT22;35069;47.906;1.892;2022-10-01T16:42:19;18.80;99.90
49238;DHT22;35069;47.906;1.892;2022-10-01T16:44:48;18.70;99.90
49238;DHT22;35069;47.906;1.892;2022-10-01T16:47:14;18.70;99.90
49238;DHT22;35069;47.906;1.892;2022-10-01T16:49:40;18.70;99.90
49238;DHT22;35069;47.906;1.892;2022-10-01T16:52:05;18.70;99.90
49238;DHT22;35069;47.906;1.892;2022-10-01T16:54:31;18.70;99.90
49238;DHT22;35069;47.906;1.892;2022-10-01T16:56:57;18.70;99.90
49238;DHT22;35069;47.906;1.892;2022-10-01T16:59:25;18.70;99.90
49238;DHT22;35069;47.906;1.892;2022-10-01T17:01:53;18.70;99.90
49238;DHT22;35069;47.906;1.892;2022-10-01T17:04:22;18.60;99.90
49238;DHT22;35069;47.906;1.892;2022-10-01T17:06:48;18.60;99.90
49238;DHT22;35069;47.906;1.892;2022-10-01T17:09:14;18.60;99.90
49238;DHT22;35069;47.906;1.892;2022-10-01T17:11:39;18.50;99.90
49238;DHT22;35069;47.906;1.892;2022-10-01T17:14:14;18.50;99.90
49238;DHT22;35069;47.906;1.892;2022-10-01T17:16:41;18.40;99.90
49238;DHT22;35069;47.906;1.892;2022-10-01T17:19:08;18.40;99.90
49238;DHT22;35069;47.906;1.892;2022-10-01T17:21:33;18.30;99.90
49238;DHT22;35069;47.906;1.892;2022-10-01T17:24:00;18.20;99.90
49238;DHT22;35069;47.906;1.892;2022-10-01T17:26:26;18.20;99.90
49238;DHT22;35069;47.906;1.892;2022-10-01T17:28:52;18.10;99.90
49238;DHT22;35069;47.906;1.892;2022-10-01T17:31:17;18.10;99.90
49238;DHT22;35069;47.906;1.892;2022-10-01T17:33:43;18.00;99.90
49238;DHT22;35069;47.906;1.892;2022-10-01T17:36:09;18.00;99.90
49238;DHT22;35069;47.906;1.892;2022-10-01T17:38:35;18.00;99.90
49238;DHT22;35069;47.906;1.892;2022-10-01T17:41:01;17.90;99.90
49238;DHT22;35069;47.906;1.892;2022-10-01T17:43:27;17.90;99.90
49238;DHT22;35069;47.906;1.892;2022-10-01T17:45:59;17.90;99.90
49238;DHT22;35069;47.906;1.892;2022-10-01T17:48:26;17.90;99.90
49238;DHT22;35069;47.906;1.892;2022-10-01T17:51:03;17.80;99.90
49238;DHT22;35069;47.906;1.892;2022-10-01T17:53:31;17.80;99.90
49238;DHT22;35069;47.906;1.892;2022-10-01T17:55:57;17.80;99.90
49238;DHT22;35069;47.906;1.892;2022-10-01T17:58:23;17.70;99.90
49238;DHT22;35069;47.906;1.892;2022-10-01T18:00:49;17.70;99.90
49238;DHT22;35069;47.906;1.892;2022-10-01T18:03:15;17.70;99.90
49238;DHT22;35069;47.906;1.892;2022-10-01T18:05:43;17.70;99.90
49238;DHT22;35069;47.906;1.892;2022-10-01T18:08:10;17.60;99.90
49238;DHT22;35069;47.906;1.892;2022-10-01T18:10:35;17.70;99.90
49238;DHT22;35069;47.906;1.892;2022-10-01T18:13:01;17.60;99.90
49238;DHT22;35069;47.906;1.892;2022-10-01T18:15:27;17.60;99.90
49238;DHT22;35069;47.906;1.892;2022-10-01T18:17:53;17.50;99.90
49238;DHT22;35069;47.906;1.892;2022-10-01T18:20:22;17.50;99.90
49238;DHT22;35069;47.906;1.892;2022-10-01T18:22:48;17.50;99.90
49238;DHT22;35069;47.906;1.892;2022-10-01T18:25:14;17.40;99.90
49238;DHT22;35069;47.906;1.892;2022-10-01T18:27:44;17.50;99.90
49238;DHT22;35069;47.906;1.892;2022-10-01T18:30:11;17.40;99.90
49238;DHT22;35069;47.906;1.892;2022-10-01T18:32:44;17.40;99.90
49238;DHT22;35069;47.906;1.892;2022-10-01T18:35:20;17.40;99.90
49238;DHT22;35069;47.906;1.892;2022-10-01T18:37:52;17.40;99.90
49238;DHT22;35069;47.906;1.892;2022-10-01T18:40:20;17.40;99.90
49238;DHT22;35069;47.906;1.892;2022-10-01T18:42:58;17.40;99.90
49238;DHT22;35069;47.906;1.892;2022-10-01T18:56:04;17.30;99.90
49238;DHT22;35069;47.906;1.892;2022-10-01T19:02:06;17.30;99.90
49238;DHT22;35069;47.906;1.892;2022-10-01T19:04:50;17.30;99.90
49238;DHT22;35069;47.906;1.892;2022-10-01T19:07:56;17.20;99.90
49238;DHT22;35069;47.906;1.892;2022-10-01T19:10:39;17.20;99.90
49238;DHT22;35069;47.906;1.892;2022-10-01T19:13:37;17.20;99.90
49238;DHT22;35069;47.906;1.892;2022-10-01T19:19:14;17.20;99.90
49238;DHT22;35069;47.906;1.892;2022-10-01T19:27:41;17.10;99.90
49238;DHT22;35069;47.906;1.892;2022-10-01T19:30:12;17.10;99.90
49238;DHT22;35069;47.906;1.892;2022-10-01T19:32:43;17.10;99.90
49238;DHT22;35069;47.906;1.892;2022-10-01T19:35:19;17.10;99.90
49238;DHT22;35069;47.906;1.892;2022-10-01T19:40:40;17.10;99.90
49238;DHT22;35069;47.906;1.892;2022-10-01T19:45:53;17.10;99.90
49238;DHT22;35069;47.906;1.892;2022-10-01T19:48:38;17.00;99.90
49238;DHT22;35069;47.906;1.892;2022-10-01T19:51:08;17.00;99.90
49238;DHT22;35069;47.906;1.892;2022-10-01T19:53:39;17.00;99.90
49238;DHT22;35069;47.906;1.892;2022-10-01T19:56:17;17.00;99.90
49238;DHT22;35069;47.906;1.892;2022-10-01T19:58:45;17.00;99.90
49238;DHT22;35069;47.906;1.892;2022-10-01T20:01:15;17.00;99.90
49238;DHT22;35069;47.906;1.892;2022-10-01T20:03:53;17.00;99.90
49238;DHT22;35069;47.906;1.892;2022-10-01T20:06:31;17.00;99.90
49238;DHT22;35069;47.906;1.892;2022-10-01T20:12:25;17.00;99.90
49238;DHT22;35069;47.906;1.892;2022-10-01T20:15:19;16.90;99.90
49238;DHT22;35069;47.906;1.892;2022-10-01T20:18:05;16.90;99.90
49238;DHT22;35069;47.906;1.892;2022-10-01T20:20:42;16.90;99.90
49238;DHT22;35069;47.906;1.892;2022-10-01T20:25:53;16.90;99.90
49238;DHT22;35069;47.906;1.892;2022-10-01T20:31:24;16.90;99.90
49238;DHT22;35069;47.906;1.892;2022-10-01T20:34:42;16.90;99.90
49238;DHT22;35069;47.906;1.892;2022-10-01T20:42:38;16.80;99.90
49238;DHT22;35069;47.906;1.892;2022-10-01T20:45:14;16.80;99.90
49238;DHT22;35069;47.906;1.892;2022-10-01T20:47:47;16.70;99.90
49238;DHT22;35069;47.906;1.892;2022-10-01T20:50:27;16.70;99.90
49238;DHT22;35069;47.906;1.892;2022-10-01T20:54:04;16.70;99.90
49238;DHT22;35069;47.906;1.892;2022-10-01T20:56:13;16.70;99.90
49238;DHT22;35069;47.906;1.892;2022-10-01T20:58:47;16.70;99.90
49238;DHT22;35069;47.906;1.892;2022-10-01T21:01:19;16.70;99.90
49238;DHT22;35069;47.906;1.892;2022-10-01T21:03:51;16.70;99.90
49238;DHT22;35069;47.906;1.892;2022-10-01T21:06:25;16.70;99.90
49238;DHT22;35069;47.906;1.892;2022-10-01T21:11:44;16.70;99.90
49238;DHT22;35069;47.906;1.892;2022-10-01T21:14:21;16.70;99.90
49238;DHT22;35069;47.906;1.892;2022-10-01T21:24:55;16.70;99.90
49238;DHT22;35069;47.906;1.892;2022-10-01T21:27:39;16.70;99.90
49238;DHT22;35069;47.906;1.892;2022-10-01T21:30:17;16.60;99.90
49238;DHT22;35069;47.906;1.892;2022-10-01T21:33:10;16.60;99.90
49238;DHT22;35069;47.906;1.892;2022-10-01T21:50:22;16.50;99.90
